Time;durP1;ratioP1;P1;durP2;ratioP2;P2;SDS_P1;SDS_P2;PMS_P1;PMS_P2;Temp;Humidity;BMP_temperature;BMP_pressure;BME280_temperature;BME280_humidity;BME280_pressure;Samples;Min_cycle;Max_cycle;Signal;HPM_P1;HPM_P2
2023/04/14 00:01:56;;;;;;;;;;;5.20;99.90;;;;;;5025213;28;19988;-67
2023/04/14 00:04:25;;;;;;;;;;;5.20;99.90;;;;;;5024877;28;19927;-69
2023/04/14 00:06:51;;;;;;;;;;;5.20;99.90;;;;;;5024596;28;19921;-68
2023/04/14 00:09:18;;;;;;;;;;;5.30;99.90;;;;;;5025033;28;19959;-67
2023/04/14 00:11:45;;;;;;;;;;;5.20;99.90;;;;;;5024761;28;19953;-67
2023/04/14 00:14:12;;;;;;;;;;;5.30;99.90;;;;;;5024386;28;19921;-68
2023/04/14 00:16:39;;;;;;;;;;;5.20;99.90;;;;;;5023875;28;19961;-67
2023/04/14 00:19:06;;;;;;;;;;;5.20;99.90;;;;;;5024357;28;19921;-68
2023/04/14 00:21:34;;;;;;;;;;;5.30;99.90;;;;;;5024618;28;19943;-68
2023/04/14 00:24:00;;;;;;;;;;;5.30;99.90;;;;;;5023365;28;19921;-67
2023/04/14 00:26:27;;;;;;;;;;;5.30;99.90;;;;;;5024293;28;19921;-68
2023/04/14 00:28:53;;;;;;;;;;;5.30;99.90;;;;;;5024501;28;20169;-68
2023/04/14 00:31:20;;;;;;;;;;;5.30;99.90;;;;;;5023649;28;19992;-67
2023/04/14 00:33:47;;;;;;;;;;;5.20;99.90;;;;;;5024068;28;19927;-68
2023/04/14 00:36:22;;;;;;;;;;;5.20;99.90;;;;;;5142071;27;20148;-68
2023/04/14 00:38:48;;;;;;;;;;;5.20;99.90;;;;;;5121444;28;19991;-69
2023/04/14 00:41:15;;;;;;;;;;;5.20;99.90;;;;;;5121944;28;19920;-72
2023/04/14 00:43:42;;;;;;;;;;;5.20;99.90;;;;;;5121305;28;19927;-68
2023/04/14 00:46:08;;;;;;;;;;;5.20;99.90;;;;;;5121357;28;19987;-68
2023/04/14 00:48:35;;;;;;;;;;;5.20;99.90;;;;;;5121177;28;19927;-68
2023/04/14 00:51:03;;;;;;;;;;;5.10;99.90;;;;;;5121151;28;20123;-68
2023/04/14 00:53:30;;;;;;;;;;;5.10;99.90;;;;;;5121341;28;19920;-68
2023/04/14 00:55:58;;;;;;;;;;;5.10;99.90;;;;;;5121254;28;19920;-68
2023/04/14 00:58:25;;;;;;;;;;;5.10;99.90;;;;;;5120220;28;19983;-68
2023/04/14 01:00:54;;;;;;;;;;;5.10;99.90;;;;;;5121307;28;19926;-68
2023/04/14 01:03:21;;;;;;;;;;;5.10;99.90;;;;;;5120930;28;20207;-69
2023/04/14 01:05:48;;;;;;;;;;;5.10;99.90;;;;;;5120768;28;19920;-68
2023/04/14 01:08:14;;;;;;;;;;;5.10;99.90;;;;;;5120949;28;19920;-68
2023/04/14 01:10:50;;;;;;;;;;;5.10;99.90;;;;;;5120804;28;19986;-68
2023/04/14 01:13:25;;;;;;;;;;;5.10;99.90;;;;;;5120642;28;19927;-68
2023/04/14 01:15:54;;;;;;;;;;;5.10;99.90;;;;;;5120412;28;19973;-68
2023/04/14 01:18:26;;;;;;;;;;;5.10;99.90;;;;;;5120929;28;19920;-68
2023/04/14 01:20:56;;;;;;;;;;;5.10;99.90;;;;;;5120904;28;19986;-67
2023/04/14 01:23:26;;;;;;;;;;;5.20;99.90;;;;;;5120011;28;19927;-68
2023/04/14 01:26:06;;;;;;;;;;;5.20;99.90;;;;;;5120442;28;19957;-68
2023/04/14 01:28:41;;;;;;;;;;;5.20;99.90;;;;;;5120444;28;19987;-68
2023/04/14 01:31:17;;;;;;;;;;;5.20;99.90;;;;;;5120458;28;20226;-68
2023/04/14 01:33:43;;;;;;;;;;;5.20;99.90;;;;;;5120448;28;20233;-68
2023/04/14 01:36:13;;;;;;;;;;;5.20;99.90;;;;;;5139586;28;19942;-68
2023/04/14 01:38:40;;;;;;;;;;;5.20;99.90;;;;;;5141130;28;19986;-68
2023/04/14 01:41:08;;;;;;;;;;;5.30;99.90;;;;;;5141010;28;19919;-69
2023/04/14 01:43:37;;;;;;;;;;;5.20;99.90;;;;;;5140788;28;19919;-68
2023/04/14 01:46:06;;;;;;;;;;;5.20;99.90;;;;;;5136469;28;20115;-68
2023/04/14 01:48:35;;;;;;;;;;;5.20;99.90;;;;;;5127136;28;19920;-68
2023/04/14 01:51:02;;;;;;;;;;;5.10;99.90;;;;;;5127285;28;19919;-68
2023/04/14 01:53:30;;;;;;;;;;;5.10;99.90;;;;;;5127094;28;19951;-68
2023/04/14 01:55:58;;;;;;;;;;;5.10;99.90;;;;;;5126355;28;20114;-68
2023/04/14 01:58:26;;;;;;;;;;;5.10;99.90;;;;;;5125583;28;19951;-67
2023/04/14 02:00:53;;;;;;;;;;;5.10;99.90;;;;;;5126621;28;19926;-68
2023/04/14 02:03:20;;;;;;;;;;;5.10;99.90;;;;;;5126556;28;19919;-68
2023/04/14 02:05:50;;;;;;;;;;;5.20;99.90;;;;;;5126785;28;19994;-68
2023/04/14 02:08:18;;;;;;;;;;;5.20;99.90;;;;;;5126361;28;20146;-68
2023/04/14 02:10:46;;;;;;;;;;;5.20;99.90;;;;;;5126487;28;20271;-68
2023/04/14 02:13:13;;;;;;;;;;;5.20;99.90;;;;;;5126778;28;19919;-68
2023/04/14 02:15:40;;;;;;;;;;;5.20;99.90;;;;;;5126474;28;20168;-67
2023/04/14 02:18:07;;;;;;;;;;;5.30;99.90;;;;;;5126543;28;19920;-68
2023/04/14 02:20:34;;;;;;;;;;;5.30;99.90;;;;;;5126301;28;19920;-68
2023/04/14 02:23:02;;;;;;;;;;;5.20;99.90;;;;;;5126471;28;19961;-68
2023/04/14 02:25:30;;;;;;;;;;;5.20;99.90;;;;;;5126348;28;19920;-70
2023/04/14 02:27:58;;;;;;;;;;;5.20;99.90;;;;;;5125923;28;19987;-69
2023/04/14 02:30:27;;;;;;;;;;;5.10;99.90;;;;;;5134322;27;19919;-69
2023/04/14 02:32:57;;;;;;;;;;;5.10;99.90;;;;;;5146755;27;19925;-68
2023/04/14 02:35:25;;;;;;;;;;;5.10;99.90;;;;;;5146515;27;19935;-68
2023/04/14 02:37:54;;;;;;;;;;;5.10;99.90;;;;;;5146482;27;19919;-68
2023/04/14 02:40:26;;;;;;;;;;;5.10;99.90;;;;;;5146337;27;19994;-69
2023/04/14 02:42:57;;;;;;;;;;;5.10;99.90;;;;;;5146648;27;19951;-68
2023/04/14 02:45:27;;;;;;;;;;;5.10;99.90;;;;;;5146575;27;19987;-68
2023/04/14 02:47:55;;;;;;;;;;;5.00;99.90;;;;;;5146501;27;19926;-67
2023/04/14 02:50:22;;;;;;;;;;;5.10;99.90;;;;;;5146686;27;19919;-68
2023/04/14 02:52:50;;;;;;;;;;;5.10;99.90;;;;;;5146440;27;19950;-68
2023/04/14 02:55:18;;;;;;;;;;;5.10;99.90;;;;;;5146431;27;19951;-68
2023/04/14 02:57:47;;;;;;;;;;;5.10;99.90;;;;;;5144231;27;19986;-68
2023/04/14 03:00:14;;;;;;;;;;;5.10;99.90;;;;;;5146361;27;19991;-69
2023/04/14 03:02:43;;;;;;;;;;;5.10;99.90;;;;;;5126780;27;19920;-68
2023/04/14 03:05:10;;;;;;;;;;;5.10;99.90;;;;;;5125513;28;19926;-68
2023/04/14 03:07:37;;;;;;;;;;;5.10;99.90;;;;;;5125374;28;19920;-68
2023/04/14 03:10:05;;;;;;;;;;;5.10;99.90;;;;;;5125546;28;19919;-70
2023/04/14 03:12:32;;;;;;;;;;;5.20;99.90;;;;;;5124735;28;19919;-68
2023/04/14 03:15:02;;;;;;;;;;;5.20;99.90;;;;;;5125157;28;19926;-67
2023/04/14 03:17:29;;;;;;;;;;;5.20;99.90;;;;;;5124872;28;19959;-68
2023/04/14 03:19:56;;;;;;;;;;;5.20;99.90;;;;;;5144081;27;20004;-68
2023/04/14 03:22:23;;;;;;;;;;;5.20;99.90;;;;;;5145586;27;19983;-68
2023/04/14 03:24:50;;;;;;;;;;;5.20;99.90;;;;;;5145808;27;19954;-68
2023/04/14 03:27:20;;;;;;;;;;;5.20;99.90;;;;;;5129271;27;19919;-68
2023/04/14 03:29:49;;;;;;;;;;;5.10;99.90;;;;;;5134979;27;19951;-68
2023/04/14 03:32:18;;;;;;;;;;;5.10;99.90;;;;;;5125010;28;19999;-67
2023/04/14 03:34:46;;;;;;;;;;;5.10;99.90;;;;;;5124578;28;20282;-68
2023/04/14 03:37:15;;;;;;;;;;;5.10;99.90;;;;;;5131633;27;19990;-68
2023/04/14 03:39:42;;;;;;;;;;;5.10;99.90;;;;;;5145504;27;19919;-69
2023/04/14 03:42:10;;;;;;;;;;;5.10;99.90;;;;;;5145346;27;19977;-68
2023/04/14 03:44:39;;;;;;;;;;;5.10;99.90;;;;;;5145016;27;19920;-68
2023/04/14 03:47:07;;;;;;;;;;;5.10;99.90;;;;;;5144894;27;20141;-68
2023/04/14 03:49:36;;;;;;;;;;;5.10;99.90;;;;;;5145077;27;19920;-68
2023/04/14 03:52:04;;;;;;;;;;;5.10;99.90;;;;;;5145301;27;19919;-68
2023/04/14 03:54:32;;;;;;;;;;;5.10;99.90;;;;;;5145197;27;19942;-68
2023/04/14 03:57:00;;;;;;;;;;;5.20;99.90;;;;;;5144063;27;19947;-68
2023/04/14 03:59:27;;;;;;;;;;;5.10;99.90;;;;;;5145040;27;19925;-67
2023/04/14 04:01:55;;;;;;;;;;;5.10;99.90;;;;;;5145155;27;19998;-68
2023/04/14 04:04:22;;;;;;;;;;;5.10;99.90;;;;;;5145099;27;20118;-68
2023/04/14 04:06:50;;;;;;;;;;;5.10;99.90;;;;;;5144816;27;19926;-67
2023/04/14 04:09:18;;;;;;;;;;;5.10;99.90;;;;;;5144480;27;20265;-68
2023/04/14 04:11:46;;;;;;;;;;;5.10;99.90;;;;;;5144666;27;19919;-68
2023/04/14 04:14:13;;;;;;;;;;;5.10;99.90;;;;;;5144991;27;19919;-68
2023/04/14 04:16:41;;;;;;;;;;;5.10;99.90;;;;;;5144233;27;19920;-67
2023/04/14 04:19:09;;;;;;;;;;;5.10;99.90;;;;;;5144907;27;19919;-68
2023/04/14 04:21:39;;;;;;;;;;;5.10;99.90;;;;;;5144593;27;19990;-68
2023/04/14 04:24:08;;;;;;;;;;;5.10;99.90;;;;;;5143727;27;19964;-68
2023/04/14 04:26:34;;;;;;;;;;;5.10;99.90;;;;;;5144462;27;19919;-70
2023/04/14 04:29:02;;;;;;;;;;;5.10;99.90;;;;;;5144813;27;19960;-68
2023/04/14 04:31:29;;;;;;;;;;;5.10;99.90;;;;;;5142109;27;19926;-70
2023/04/14 04:33:56;;;;;;;;;;;5.10;99.90;;;;;;5124015;28;19955;-68
2023/04/14 04:36:24;;;;;;;;;;;5.10;99.90;;;;;;5123568;28;20207;-70
2023/04/14 04:38:51;;;;;;;;;;;5.10;99.90;;;;;;5124079;28;20006;-68
2023/04/14 04:41:22;;;;;;;;;;;5.10;99.90;;;;;;5135802;28;19958;-68
2023/04/14 04:43:48;;;;;;;;;;;5.20;99.90;;;;;;5130130;28;19984;-68
2023/04/14 04:46:23;;;;;;;;;;;5.10;99.90;;;;;;5123676;28;19995;-68
2023/04/14 04:48:51;;;;;;;;;;;5.20;99.90;;;;;;5124006;28;19942;-68
2023/04/14 04:51:17;;;;;;;;;;;5.10;99.90;;;;;;5124040;28;19920;-68
2023/04/14 04:53:44;;;;;;;;;;;5.20;99.90;;;;;;5123935;28;19933;-68
2023/04/14 04:56:11;;;;;;;;;;;5.20;99.90;;;;;;5123673;28;19920;-68
2023/04/14 04:58:39;;;;;;;;;;;5.20;99.90;;;;;;5123858;28;20203;-70
2023/04/14 05:01:09;;;;;;;;;;;5.20;99.90;;;;;;5123963;28;19955;-70
2023/04/14 05:03:36;;;;;;;;;;;5.20;99.90;;;;;;5122871;28;19920;-70
2023/04/14 05:06:03;;;;;;;;;;;5.20;99.90;;;;;;5123402;28;19920;-68
2023/04/14 05:08:30;;;;;;;;;;;5.20;99.90;;;;;;5123830;28;19920;-68
2023/04/14 05:10:56;;;;;;;;;;;5.20;99.90;;;;;;5123694;28;19924;-68
2023/04/14 05:13:23;;;;;;;;;;;5.20;99.90;;;;;;5133992;28;19959;-68
2023/04/14 05:15:51;;;;;;;;;;;5.20;99.90;;;;;;5139367;28;19970;-69
2023/04/14 05:18:18;;;;;;;;;;;5.30;99.90;;;;;;5131800;28;19924;-68
2023/04/14 05:20:45;;;;;;;;;;;5.30;99.90;;;;;;5135454;28;19979;-69
2023/04/14 05:23:12;;;;;;;;;;;5.30;99.90;;;;;;5147633;27;19920;-67
2023/04/14 05:25:38;;;;;;;;;;;5.30;99.90;;;;;;5148132;27;19919;-68
2023/04/14 05:28:05;;;;;;;;;;;5.30;99.90;;;;;;5147889;27;19958;-67
2023/04/14 05:30:32;;;;;;;;;;;5.40;99.90;;;;;;5147983;27;19983;-68
2023/04/14 05:33:00;;;;;;;;;;;5.40;99.90;;;;;;5147729;27;19927;-67
2023/04/14 05:35:26;;;;;;;;;;;5.40;99.90;;;;;;5147650;27;19923;-67
2023/04/14 05:37:53;;;;;;;;;;;5.40;99.90;;;;;;5147376;27;19966;-70
2023/04/14 05:40:21;;;;;;;;;;;5.40;99.90;;;;;;5147919;27;19986;-66
2023/04/14 05:42:47;;;;;;;;;;;5.40;99.90;;;;;;5147948;27;20242;-67
2023/04/14 05:45:14;;;;;;;;;;;5.40;99.90;;;;;;5147821;27;19919;-67
2023/04/14 05:47:40;;;;;;;;;;;5.50;99.90;;;;;;5147559;27;20110;-67
2023/04/14 05:50:09;;;;;;;;;;;5.50;99.90;;;;;;5147770;27;19982;-67
2023/04/14 05:52:36;;;;;;;;;;;5.50;99.90;;;;;;5147281;27;20215;-67
2023/04/14 05:55:02;;;;;;;;;;;5.60;99.90;;;;;;5147597;27;19954;-66
2023/04/14 05:57:29;;;;;;;;;;;5.50;99.90;;;;;;5147348;27;20028;-67
2023/04/14 05:59:56;;;;;;;;;;;5.50;99.90;;;;;;5147483;27;19955;-67
2023/04/14 06:02:22;;;;;;;;;;;5.50;99.90;;;;;;5147391;27;20169;-66
2023/04/14 06:04:49;;;;;;;;;;;5.50;99.90;;;;;;5147480;27;20107;-68
2023/04/14 06:07:17;;;;;;;;;;;5.60;99.90;;;;;;5147067;27;19982;-67
2023/04/14 06:09:45;;;;;;;;;;;5.60;99.90;;;;;;5135434;27;19926;-69
2023/04/14 06:12:12;;;;;;;;;;;5.60;99.90;;;;;;5126267;28;19920;-70
2023/04/14 06:14:39;;;;;;;;;;;5.60;99.90;;;;;;5126665;28;19957;-68
2023/04/14 06:17:06;;;;;;;;;;;5.70;99.90;;;;;;5125225;28;19988;-68
2023/04/14 06:19:32;;;;;;;;;;;5.70;99.90;;;;;;5126631;28;19955;-68
2023/04/14 06:21:59;;;;;;;;;;;5.80;99.90;;;;;;5126387;28;19919;-68
2023/04/14 06:24:27;;;;;;;;;;;5.80;99.90;;;;;;5126362;28;19983;-68
2023/04/14 06:26:54;;;;;;;;;;;5.80;99.90;;;;;;5126094;28;19982;-69
2023/04/14 06:29:22;;;;;;;;;;;5.90;99.90;;;;;;5125839;28;20162;-69
2023/04/14 06:31:50;;;;;;;;;;;5.90;99.90;;;;;;5126314;28;19986;-68
2023/04/14 06:34:17;;;;;;;;;;;5.90;99.90;;;;;;5126106;28;19983;-70
2023/04/14 06:36:43;;;;;;;;;;;5.90;99.90;;;;;;5125779;28;19987;-68
2023/04/14 06:39:10;;;;;;;;;;;6.00;99.90;;;;;;5125214;28;19920;-68
2023/04/14 06:41:38;;;;;;;;;;;6.00;99.90;;;;;;5125973;28;19920;-68
2023/04/14 06:44:05;;;;;;;;;;;6.00;99.90;;;;;;5125984;28;19958;-69
2023/04/14 06:46:34;;;;;;;;;;;6.10;99.90;;;;;;5125783;28;19951;-69
2023/04/14 06:49:01;;;;;;;;;;;6.20;99.90;;;;;;5139898;27;19982;-67
2023/04/14 06:51:27;;;;;;;;;;;6.20;99.90;;;;;;5146386;27;19955;-67
2023/04/14 06:53:54;;;;;;;;;;;6.30;99.90;;;;;;5146356;27;20131;-67
2023/04/14 06:56:21;;;;;;;;;;;6.40;99.90;;;;;;5145713;27;19926;-66
2023/04/14 06:58:48;;;;;;;;;;;6.40;99.90;;;;;;5146270;27;19982;-69
2023/04/14 07:01:15;;;;;;;;;;;6.50;99.90;;;;;;5145979;27;20207;-67
2023/04/14 07:03:43;;;;;;;;;;;6.60;99.90;;;;;;5146155;27;19987;-70
2023/04/14 07:06:10;;;;;;;;;;;6.60;99.90;;;;;;5145745;27;19987;-67
2023/04/14 07:08:37;;;;;;;;;;;6.70;99.90;;;;;;5145784;27;19919;-68
2023/04/14 07:11:04;;;;;;;;;;;6.70;99.90;;;;;;5145985;27;19919;-67
2023/04/14 07:13:31;;;;;;;;;;;6.80;99.90;;;;;;5146035;27;19982;-67
2023/04/14 07:16:00;;;;;;;;;;;6.80;99.90;;;;;;5145731;27;19982;-67
2023/04/14 07:18:27;;;;;;;;;;;6.80;99.90;;;;;;5145877;27;19919;-66
2023/04/14 07:20:54;;;;;;;;;;;6.80;99.90;;;;;;5145523;27;19919;-69
2023/04/14 07:23:20;;;;;;;;;;;6.90;99.90;;;;;;5145432;27;20168;-68
2023/04/14 07:25:50;;;;;;;;;;;6.90;99.90;;;;;;5145624;27;19919;-69
2023/04/14 07:28:16;;;;;;;;;;;7.00;99.90;;;;;;5145621;27;19919;-69
2023/04/14 07:30:43;;;;;;;;;;;7.00;99.90;;;;;;5145748;27;19961;-67
2023/04/14 07:33:12;;;;;;;;;;;7.10;99.90;;;;;;5145475;27;19924;-68
2023/04/14 07:35:39;;;;;;;;;;;7.10;99.90;;;;;;5142949;27;19919;-68
2023/04/14 07:38:05;;;;;;;;;;;7.10;99.90;;;;;;5124725;28;19926;-68
2023/04/14 07:40:32;;;;;;;;;;;7.20;99.90;;;;;;5124169;28;19927;-68
2023/04/14 07:42:59;;;;;;;;;;;7.20;99.90;;;;;;5125027;28;20208;-66
2023/04/14 07:45:26;;;;;;;;;;;7.30;99.90;;;;;;5124316;28;19920;-66
2023/04/14 07:47:52;;;;;;;;;;;7.40;99.90;;;;;;5124522;28;19920;-66
2023/04/14 07:50:21;;;;;;;;;;;7.50;99.90;;;;;;5124078;28;19920;-66
2023/04/14 07:52:47;;;;;;;;;;;7.60;99.90;;;;;;5124467;28;19991;-66
2023/04/14 07:55:14;;;;;;;;;;;7.60;99.90;;;;;;5124571;28;19951;-68
2023/04/14 07:57:40;;;;;;;;;;;7.70;99.90;;;;;;5124374;28;20111;-66
2023/04/14 08:00:08;;;;;;;;;;;7.80;99.90;;;;;;5124349;28;20342;-66
2023/04/14 08:02:35;;;;;;;;;;;7.80;99.90;;;;;;5123266;28;20230;-66
2023/04/14 08:05:02;;;;;;;;;;;7.80;99.90;;;;;;5124460;28;20096;-66
2023/04/14 08:07:30;;;;;;;;;;;7.90;99.90;;;;;;5124159;28;19920;-66
2023/04/14 08:09:56;;;;;;;;;;;8.00;99.90;;;;;;5124172;28;19924;-68
2023/04/14 08:12:24;;;;;;;;;;;8.10;99.90;;;;;;5124094;28;20211;-68
2023/04/14 08:14:51;;;;;;;;;;;8.10;99.90;;;;;;5124428;28;19919;-68
2023/04/14 08:17:18;;;;;;;;;;;8.20;99.90;;;;;;5140653;27;19998;-66
2023/04/14 08:19:45;;;;;;;;;;;8.30;99.90;;;;;;5144579;27;19947;-66
2023/04/14 08:22:11;;;;;;;;;;;8.40;99.90;;;;;;5142824;27;19925;-66
2023/04/14 08:24:40;;;;;;;;;;;8.50;99.90;;;;;;5144775;27;19982;-65
2023/04/14 08:27:06;;;;;;;;;;;8.50;99.90;;;;;;5144284;27;19957;-66
2023/04/14 08:29:33;;;;;;;;;;;8.60;99.90;;;;;;5139944;27;19958;-64
2023/04/14 08:32:00;;;;;;;;;;;8.60;99.90;;;;;;5129828;27;19926;-67
2023/04/14 08:34:27;;;;;;;;;;;8.60;99.90;;;;;;5138406;28;19930;-66
2023/04/14 08:36:53;;;;;;;;;;;8.60;99.90;;;;;;5144284;27;19919;-66
2023/04/14 08:39:20;;;;;;;;;;;8.60;99.90;;;;;;5143899;28;19983;-67
2023/04/14 08:41:50;;;;;;;;;;;8.70;99.90;;;;;;5144511;28;19964;-65
2023/04/14 08:44:16;;;;;;;;;;;8.70;99.90;;;;;;5143969;28;19923;-65
2023/04/14 08:46:44;;;;;;;;;;;8.70;99.90;;;;;;5124669;28;19942;-68
2023/04/14 08:49:13;;;;;;;;;;;8.70;99.90;;;;;;5122532;28;19983;-65
2023/04/14 08:51:42;;;;;;;;;;;8.80;99.90;;;;;;5123810;28;19926;-67
2023/04/14 08:54:09;;;;;;;;;;;8.80;99.90;;;;;;5123941;28;19920;-67
2023/04/14 08:56:37;;;;;;;;;;;8.90;99.90;;;;;;5133377;27;20031;-67
2023/04/14 08:59:06;;;;;;;;;;;8.90;99.90;;;;;;5148122;27;20343;-67
2023/04/14 09:01:33;;;;;;;;;;;9.00;99.90;;;;;;5148349;27;19926;-67
2023/04/14 09:04:00;;;;;;;;;;;9.10;99.90;;;;;;5148090;27;19926;-67
2023/04/14 09:06:28;;;;;;;;;;;9.10;99.90;;;;;;5147966;27;19919;-66
2023/04/14 09:08:55;;;;;;;;;;;9.10;99.90;;;;;;5148417;27;19919;-67
2023/04/14 09:11:22;;;;;;;;;;;9.20;99.90;;;;;;5148453;27;19960;-68
2023/04/14 09:13:49;;;;;;;;;;;9.20;99.90;;;;;;5132697;27;19926;-67
2023/04/14 09:16:18;;;;;;;;;;;9.30;99.90;;;;;;5127085;28;20093;-69
2023/04/14 09:18:45;;;;;;;;;;;9.40;99.90;;;;;;5127865;28;19919;-66
2023/04/14 09:21:12;;;;;;;;;;;9.40;99.90;;;;;;5127491;28;20211;-66
2023/04/14 09:23:40;;;;;;;;;;;9.40;99.90;;;;;;5127283;28;20235;-68
2023/04/14 09:26:09;;;;;;;;;;;9.50;99.90;;;;;;5129997;27;19926;-67
2023/04/14 09:28:35;;;;;;;;;;;9.50;99.90;;;;;;5136602;27;19927;-67
2023/04/14 09:31:02;;;;;;;;;;;9.60;99.90;;;;;;5128600;27;19919;-71
2023/04/14 09:33:31;;;;;;;;;;;9.60;99.90;;;;;;5145383;27;19923;-67
2023/04/14 09:35:58;;;;;;;;;;;9.60;99.90;;;;;;5146873;27;19982;-67
2023/04/14 09:38:31;;;;;;;;;;;9.60;99.90;;;;;;5147005;27;19999;-65
2023/04/14 09:40:58;;;;;;;;;;;9.60;99.90;;;;;;5147953;27;19923;-69
2023/04/14 09:43:26;;;;;;;;;;;9.60;99.90;;;;;;5137843;27;19982;-67
2023/04/14 09:45:52;;;;;;;;;;;9.60;99.90;;;;;;5126127;28;19954;-69
2023/04/14 09:48:19;;;;;;;;;;;9.70;99.90;;;;;;5126186;28;19991;-68
2023/04/14 09:50:57;;;;;;;;;;;9.80;99.90;;;;;;5133525;27;19983;-71
2023/04/14 09:53:28;;;;;;;;;;;9.90;99.90;;;;;;5127195;27;19961;-66
2023/04/14 09:55:55;;;;;;;;;;;9.90;99.90;;;;;;5137162;27;19931;-67
2023/04/14 09:58:21;;;;;;;;;;;10.00;99.90;;;;;;5141008;27;19925;-68
2023/04/14 10:00:49;;;;;;;;;;;10.00;99.90;;;;;;5134873;27;19920;-68
2023/04/14 10:03:16;;;;;;;;;;;10.00;99.90;;;;;;5135152;27;19958;-68
2023/04/14 10:05:46;;;;;;;;;;;10.00;99.90;;;;;;5146691;27;19927;-69
2023/04/14 10:08:15;;;;;;;;;;;10.10;99.90;;;;;;5144217;27;19983;-68
2023/04/14 10:10:41;;;;;;;;;;;10.10;99.90;;;;;;5146948;27;20255;-69
2023/04/14 10:13:13;;;;;;;;;;;10.20;99.90;;;;;;5147037;27;19955;-67
2023/04/14 10:15:40;;;;;;;;;;;10.40;99.90;;;;;;5146646;27;19920;-67
2023/04/14 10:18:07;;;;;;;;;;;10.50;99.90;;;;;;5146686;27;19926;-69
2023/04/14 10:20:34;;;;;;;;;;;10.60;99.90;;;;;;5146990;27;19978;-68
2023/04/14 10:23:00;;;;;;;;;;;10.60;99.90;;;;;;5147143;27;19926;-67
2023/04/14 10:25:29;;;;;;;;;;;10.60;99.90;;;;;;5147037;27;19926;-67
2023/04/14 10:27:56;;;;;;;;;;;10.60;99.90;;;;;;5145499;27;20279;-68
2023/04/14 10:30:23;;;;;;;;;;;10.60;99.90;;;;;;5146625;27;19926;-70
2023/04/14 10:32:50;;;;;;;;;;;10.60;99.90;;;;;;5146519;27;20157;-67
2023/04/14 10:35:18;;;;;;;;;;;10.60;99.90;;;;;;5128182;27;19980;-67
2023/04/14 10:37:49;;;;;;;;;;;10.70;99.90;;;;;;5122897;28;19926;-67
2023/04/14 10:40:16;;;;;;;;;;;10.80;99.90;;;;;;5126126;28;19977;-67
2023/04/14 10:42:54;;;;;;;;;;;10.90;99.90;;;;;;5125797;27;19934;-67
2023/04/14 10:45:21;;;;;;;;;;;10.90;99.90;;;;;;5141182;27;20257;-67
2023/04/14 10:47:48;;;;;;;;;;;10.90;99.90;;;;;;5134880;27;19965;-69
2023/04/14 10:50:16;;;;;;;;;;;10.90;99.90;;;;;;5125720;28;19988;-67
2023/04/14 10:52:50;;;;;;;;;;;10.90;99.90;;;;;;5125523;28;19962;-67
2023/04/14 10:55:20;;;;;;;;;;;10.80;99.90;;;;;;5125854;28;19920;-69
2023/04/14 10:57:47;;;;;;;;;;;10.90;99.90;;;;;;5124118;28;19920;-67
2023/04/14 11:00:32;;;;;;;;;;;11.10;99.90;;;;;;5133268;27;19926;-69
2023/04/14 11:03:04;;;;;;;;;;;11.30;99.90;;;;;;5140292;27;19923;-69
2023/04/14 11:05:32;;;;;;;;;;;11.40;99.90;;;;;;5143510;27;19984;-68
2023/04/14 11:08:00;;;;;;;;;;;11.40;99.90;;;;;;5145330;27;20118;-67
2023/04/14 11:10:36;;;;;;;;;;;11.60;99.90;;;;;;5145901;27;19920;-68
2023/04/14 11:13:03;;;;;;;;;;;11.80;99.90;;;;;;5145926;27;19919;-67
2023/04/14 11:15:46;;;;;;;;;;;11.70;99.90;;;;;;5145497;27;20256;-68
2023/04/14 11:18:15;;;;;;;;;;;11.70;99.90;;;;;;5141032;27;19972;-68
2023/04/14 11:20:42;;;;;;;;;;;11.70;99.90;;;;;;5144755;27;20207;-68
2023/04/14 11:23:09;;;;;;;;;;;11.80;99.90;;;;;;5145493;27;19919;-68
2023/04/14 11:25:36;;;;;;;;;;;12.00;99.90;;;;;;5145504;27;20138;-68
2023/04/14 11:28:03;;;;;;;;;;;12.20;99.90;;;;;;5145278;27;19919;-68
2023/04/14 11:30:30;;;;;;;;;;;12.30;99.90;;;;;;5143774;27;19926;-68
2023/04/14 11:32:57;;;;;;;;;;;12.40;99.90;;;;;;5145616;27;19927;-69
2023/04/14 11:35:26;;;;;;;;;;;12.40;99.90;;;;;;5142561;27;19927;-67
2023/04/14 11:37:53;;;;;;;;;;;12.50;99.90;;;;;;5140110;27;19920;-71
2023/04/14 11:40:19;;;;;;;;;;;12.30;99.90;;;;;;5124684;28;19983;-68
2023/04/14 11:42:46;;;;;;;;;;;12.10;99.90;;;;;;5125058;28;19919;-68
2023/04/14 11:45:14;;;;;;;;;;;12.10;99.90;;;;;;5124775;28;20017;-69
2023/04/14 11:47:40;;;;;;;;;;;12.00;99.90;;;;;;5124455;28;20111;-69
2023/04/14 11:50:08;;;;;;;;;;;11.90;99.90;;;;;;5126330;27;20210;-68
2023/04/14 11:52:35;;;;;;;;;;;12.00;99.90;;;;;;5127159;27;19974;-68
2023/04/14 11:55:02;;;;;;;;;;;12.20;99.90;;;;;;5124363;28;19920;-68
2023/04/14 11:57:29;;;;;;;;;;;12.50;99.90;;;;;;5123759;28;20273;-68
2023/04/14 11:59:56;;;;;;;;;;;12.90;99.90;;;;;;5137414;27;19919;-67
2023/04/14 12:02:23;;;;;;;;;;;13.10;99.90;;;;;;5141568;27;19955;-69
2023/04/14 12:04:50;;;;;;;;;;;13.20;99.90;;;;;;5144766;27;19995;-68
2023/04/14 12:07:17;;;;;;;;;;;13.10;99.90;;;;;;5144397;27;19919;-69
2023/04/14 12:09:47;;;;;;;;;;;12.90;99.90;;;;;;5144769;27;19919;-70
2023/04/14 12:12:15;;;;;;;;;;;12.80;99.90;;;;;;5144842;27;19919;-69
2023/04/14 12:14:43;;;;;;;;;;;12.70;99.90;;;;;;5144482;27;20285;-69
2023/04/14 12:17:10;;;;;;;;;;;12.60;99.90;;;;;;5143533;27;20178;-68
2023/04/14 12:19:37;;;;;;;;;;;12.50;99.90;;;;;;5134573;27;19966;-71
2023/04/14 12:22:05;;;;;;;;;;;12.50;99.90;;;;;;5134288;27;19941;-68
2023/04/14 12:24:35;;;;;;;;;;;12.70;99.90;;;;;;5138458;27;19978;-68
2023/04/14 12:27:04;;;;;;;;;;;12.70;99.90;;;;;;5141616;27;19927;-68
2023/04/14 12:29:31;;;;;;;;;;;12.70;99.90;;;;;;5123898;28;20203;-69
2023/04/14 12:31:58;;;;;;;;;;;13.00;99.90;;;;;;5123597;28;20208;-69
2023/04/14 12:34:25;;;;;;;;;;;13.20;99.90;;;;;;5123198;28;19987;-68
2023/04/14 12:36:52;;;;;;;;;;;13.20;99.90;;;;;;5123655;28;19939;-68
2023/04/14 12:39:20;;;;;;;;;;;13.30;99.90;;;;;;5124027;28;19919;-69
2023/04/14 12:41:47;;;;;;;;;;;13.20;99.90;;;;;;5121919;28;19927;-69
2023/04/14 12:44:19;;;;;;;;;;;13.20;99.90;;;;;;5123986;28;19983;-68
2023/04/14 12:46:47;;;;;;;;;;;13.30;99.90;;;;;;5139285;28;20145;-68
2023/04/14 12:49:33;;;;;;;;;;;13.40;99.90;;;;;;5144684;28;19919;-68
2023/04/14 12:51:59;;;;;;;;;;;13.50;99.90;;;;;;5131653;28;20172;-72
2023/04/14 12:54:26;;;;;;;;;;;13.50;99.90;;;;;;5124072;28;19932;-72
2023/04/14 12:56:53;;;;;;;;;;;13.50;99.90;;;;;;5123361;28;19919;-68
2023/04/14 12:59:21;;;;;;;;;;;13.50;99.90;;;;;;5123545;28;19961;-68
2023/04/14 13:01:47;;;;;;;;;;;13.40;99.90;;;;;;5124020;28;19958;-68
2023/04/14 13:04:14;;;;;;;;;;;13.50;99.90;;;;;;5123641;28;20346;-68
2023/04/14 13:06:41;;;;;;;;;;;13.40;99.90;;;;;;5123059;28;19965;-68
2023/04/14 13:09:07;;;;;;;;;;;13.50;99.90;;;;;;5123916;28;20112;-68
2023/04/14 13:11:34;;;;;;;;;;;13.60;99.90;;;;;;5123864;28;19955;-68
2023/04/14 13:14:00;;;;;;;;;;;13.70;99.90;;;;;;5134493;28;20111;-67
2023/04/14 13:16:28;;;;;;;;;;;13.80;99.90;;;;;;5144075;28;20057;-70
2023/04/14 13:18:55;;;;;;;;;;;13.80;99.90;;;;;;5144292;28;19941;-67
2023/04/14 13:21:22;;;;;;;;;;;14.00;99.90;;;;;;5143966;28;19982;-68
2023/04/14 13:23:48;;;;;;;;;;;14.10;99.90;;;;;;5144081;28;20249;-68
2023/04/14 13:26:15;;;;;;;;;;;14.20;99.90;;;;;;5143687;28;19954;-69
2023/04/14 13:28:42;;;;;;;;;;;14.30;99.90;;;;;;5144316;28;19920;-68
2023/04/14 13:31:10;;;;;;;;;;;14.30;99.90;;;;;;5144295;28;19951;-68
2023/04/14 13:33:38;;;;;;;;;;;14.40;99.90;;;;;;5144156;28;19919;-68
2023/04/14 13:36:05;;;;;;;;;;;14.50;99.90;;;;;;5143187;28;20237;-68
2023/04/14 13:38:32;;;;;;;;;;;14.60;99.90;;;;;;5143872;28;19991;-70
2023/04/14 13:40:58;;;;;;;;;;;14.80;99.90;;;;;;5144083;28;19923;-68
2023/04/14 13:43:25;;;;;;;;;;;15.10;99.90;;;;;;5146591;27;20125;-68
2023/04/14 13:45:52;;;;;;;;;;;15.10;99.90;;;;;;5147187;27;20110;-70
2023/04/14 13:48:18;;;;;;;;;;;15.10;99.90;;;;;;5147166;27;20203;-68
2023/04/14 13:50:46;;;;;;;;;;;14.70;99.90;;;;;;5145558;27;19919;-68
2023/04/14 13:53:15;;;;;;;;;;;14.50;99.90;;;;;;5126979;28;19986;-68
2023/04/14 13:55:42;;;;;;;;;;;14.30;99.90;;;;;;5126311;28;19958;-68
2023/04/14 13:58:09;;;;;;;;;;;14.20;99.90;;;;;;5126661;28;19987;-68
2023/04/14 14:00:35;;;;;;;;;;;14.10;99.90;;;;;;5126979;28;19919;-68
2023/04/14 14:03:02;;;;;;;;;;;14.20;99.90;;;;;;5125093;27;19957;-68
2023/04/14 14:05:29;;;;;;;;;;;14.30;99.90;;;;;;5126769;28;19920;-68
2023/04/14 14:07:57;;;;;;;;;;;14.60;99.90;;;;;;5126141;28;19942;-68
2023/04/14 14:10:24;;;;;;;;;;;14.90;99.90;;;;;;5126823;28;19924;-68
2023/04/14 14:12:50;;;;;;;;;;;15.00;99.90;;;;;;5126302;28;20270;-68
2023/04/14 14:15:17;;;;;;;;;;;15.10;99.90;;;;;;5126576;28;19951;-68
2023/04/14 14:17:44;;;;;;;;;;;15.10;99.90;;;;;;5124728;28;19920;-68
2023/04/14 14:20:10;;;;;;;;;;;15.20;99.90;;;;;;5126512;28;19999;-67
2023/04/14 14:22:37;;;;;;;;;;;15.40;99.90;;;;;;5126511;28;19920;-68
2023/04/14 14:25:07;;;;;;;;;;;15.80;99.90;;;;;;5126375;28;19926;-68
2023/04/14 14:27:33;;;;;;;;;;;16.00;99.90;;;;;;5126253;27;19920;-68
2023/04/14 14:30:00;;;;;;;;;;;16.00;99.90;;;;;;5126140;28;19926;-68